HAZ1087 ZPPP-ZGGG
Flight info
| Callsign | HAZ1087 |
|---|---|
| Flight time | N/A |
| Altitude | 37100 |
| Route | LXI1Y LXI A599 GYA GYA8 |
| Aircraft | A339/H-SADE1E2E3GHIJ3J5M1P2RWXY/LB2D1 |
Departure
| Time | 2026-05-06 05:57 |
|---|---|
| Airport | Kunming Changshui International Airport (ZPPP) |
Arrival
| Time | N/A |
|---|---|
| Airport | Guangzhou Baiyun International Airport (ZGGG) |
| Time | Latitude | Longitude | Altitude | Speed | Heading |
|---|---|---|---|---|---|
| 2026-05-06 05:29 | 25.10231 | 102.93214 | 6924 ft | 0 kts | 8° |
| 2026-05-06 05:44 | 25.10225 | 102.93212 | 6924 ft | 2 kts | 8° |
| 2026-05-06 05:44 | 25.10211 | 102.93210 | 6924 ft | 2 kts | 8° |
| 2026-05-06 05:44 | 25.10196 | 102.93208 | 6924 ft | 2 kts | 14° |
| 2026-05-06 05:44 | 25.10183 | 102.93200 | 6924 ft | 2 kts | 47° |
| 2026-05-06 05:45 | 25.10177 | 102.93192 | 6924 ft | 2 kts | 64° |
| 2026-05-06 05:45 | 25.10172 | 102.93173 | 6924 ft | 0 kts | 96° |
| 2026-05-06 05:45 | 25.10173 | 102.93166 | 6924 ft | 0 kts | 97° |
| 2026-05-06 05:47 | 25.10172 | 102.93171 | 6924 ft | 1 kts | 97° |
| 2026-05-06 05:48 | 25.10171 | 102.93187 | 6924 ft | 2 kts | 97° |
| 2026-05-06 05:48 | 25.10168 | 102.93214 | 6924 ft | 4 kts | 96° |
| 2026-05-06 05:48 | 25.10163 | 102.93250 | 6924 ft | 5 kts | 98° |
| 2026-05-06 05:48 | 25.10157 | 102.93298 | 6924 ft | 6 kts | 99° |
| 2026-05-06 05:49 | 25.10149 | 102.93333 | 6924 ft | 7 kts | 105° |
| 2026-05-06 05:49 | 25.10134 | 102.93391 | 6924 ft | 7 kts | 107° |
| 2026-05-06 05:49 | 25.10113 | 102.93479 | 6924 ft | 9 kts | 109° |
| 2026-05-06 05:49 | 25.10092 | 102.93525 | 6924 ft | 10 kts | 124° |
| 2026-05-06 05:50 | 25.09988 | 102.93717 | 6924 ft | 9 kts | 72° |
| 2026-05-06 05:50 | 25.09999 | 102.93738 | 6924 ft | 9 kts | 49° |
| 2026-05-06 05:51 | 25.10141 | 102.93847 | 6924 ft | 11 kts | 40° |
| 2026-05-06 05:52 | 25.10467 | 102.94132 | 6924 ft | 20 kts | 39° |
| 2026-05-06 05:52 | 25.10540 | 102.94196 | 6924 ft | 19 kts | 38° |
| 2026-05-06 05:52 | 25.10678 | 102.94316 | 6924 ft | 18 kts | 39° |
| 2026-05-06 05:52 | 25.10776 | 102.94403 | 6924 ft | 17 kts | 39° |
| 2026-05-06 05:53 | 25.10838 | 102.94457 | 6924 ft | 16 kts | 38° |
| 2026-05-06 05:53 | 25.10930 | 102.94538 | 6924 ft | 16 kts | 38° |
| 2026-05-06 05:53 | 25.11018 | 102.94614 | 6924 ft | 15 kts | 38° |
| 2026-05-06 05:53 | 25.11133 | 102.94714 | 6923 ft | 15 kts | 39° |
| 2026-05-06 05:54 | 25.11217 | 102.94788 | 6923 ft | 15 kts | 38° |
| 2026-05-06 05:54 | 25.11300 | 102.94859 | 6923 ft | 14 kts | 38° |
| 2026-05-06 05:54 | 25.11355 | 102.94907 | 6923 ft | 15 kts | 38° |
| 2026-05-06 05:54 | 25.11470 | 102.95007 | 6923 ft | 16 kts | 40° |
| 2026-05-06 05:55 | 25.11561 | 102.95087 | 6923 ft | 16 kts | 35° |
| 2026-05-06 05:55 | 25.11620 | 102.95139 | 6923 ft | 15 kts | 36° |
| 2026-05-06 05:55 | 25.11708 | 102.95214 | 6923 ft | 14 kts | 40° |
| 2026-05-06 05:55 | 25.11703 | 102.95292 | 6923 ft | 9 kts | 121° |
| 2026-05-06 05:56 | 25.11658 | 102.95352 | 6923 ft | 9 kts | 146° |
| 2026-05-06 05:56 | 25.11597 | 102.95354 | 6923 ft | 8 kts | 208° |
| 2026-05-06 05:56 | 25.11465 | 102.95246 | 6923 ft | 51 kts | 218° |
| 2026-05-06 05:56 | 25.11204 | 102.95018 | 6924 ft | 89 kts | 219° |
| 2026-05-06 05:57 | 25.10580 | 102.94476 | 6924 ft | 138 kts | 221° |
| 2026-05-06 05:57 | 25.09731 | 102.93718 | 7049 ft | 168 kts | 223° |
| 2026-05-06 05:57 | 25.08488 | 102.92648 | 7718 ft | 173 kts | 222° |
| 2026-05-06 05:57 | 25.07864 | 102.92111 | 8102 ft | 174 kts | 222° |
| 2026-05-06 05:58 | 25.06595 | 102.91017 | 8849 ft | 177 kts | 223° |
| 2026-05-06 05:58 | 25.05935 | 102.90445 | 9042 ft | 182 kts | 223° |
| 2026-05-06 05:58 | 25.04559 | 102.89242 | 9311 ft | 197 kts | 223° |
| 2026-05-06 05:58 | 25.03456 | 102.88279 | 9514 ft | 208 kts | 223° |
| 2026-05-06 05:59 | 25.02285 | 102.87260 | 9718 ft | 219 kts | 223° |
| 2026-05-06 05:59 | 25.01467 | 102.86549 | 9851 ft | 228 kts | 222° |
| 2026-05-06 05:59 | 25.00174 | 102.85427 | 10074 ft | 241 kts | 222° |
| 2026-05-06 05:59 | 24.98817 | 102.84250 | 10320 ft | 252 kts | 222° |
| 2026-05-06 06:00 | 24.93673 | 102.81112 | 11836 ft | 281 kts | 182° |
| 2026-05-06 06:00 | 24.91749 | 102.81687 | 12350 ft | 295 kts | 154° |
| 2026-05-06 06:01 | 24.91169 | 102.82108 | 12517 ft | 299 kts | 143° |